sensor_id;sensor_type;location;lat;lon;timestamp;P1;durP1;ratioP1;P2;durP2;ratioP2
64885;SDS011;51514;52.206;5.114;2022-09-09T00:12:48;3.00;;;1.75;;
64885;SDS011;51514;52.206;5.114;2022-09-09T00:15:28;3.38;;;2.22;;
64885;SDS011;51514;52.206;5.114;2022-09-09T00:18:38;3.42;;;2.03;;
64885;SDS011;51514;52.206;5.114;2022-09-09T00:21:14;4.15;;;2.00;;
64885;SDS011;51514;52.206;5.114;2022-09-09T00:26:31;3.88;;;2.28;;
64885;SDS011;51514;52.206;5.114;2022-09-09T00:29:03;5.32;;;2.55;;
64885;SDS011;51514;52.206;5.114;2022-09-09T00:31:39;5.82;;;2.08;;
64885;SDS011;51514;52.206;5.114;2022-09-09T00:34:09;5.57;;;2.47;;
64885;SDS011;51514;52.206;5.114;2022-09-09T00:36:38;5.50;;;2.65;;
64885;SDS011;51514;52.206;5.114;2022-09-09T00:39:04;6.20;;;2.42;;
64885;SDS011;51514;52.206;5.114;2022-09-09T00:44:23;4.85;;;2.72;;
64885;SDS011;51514;52.206;5.114;2022-09-09T00:47:09;5.38;;;2.60;;
64885;SDS011;51514;52.206;5.114;2022-09-09T00:49:59;3.80;;;2.15;;
64885;SDS011;51514;52.206;5.114;2022-09-09T00:55:19;3.95;;;2.45;;
64885;SDS011;51514;52.206;5.114;2022-09-09T00:57:53;4.55;;;2.90;;
64885;SDS011;51514;52.206;5.114;2022-09-09T01:03:01;5.95;;;2.90;;
64885;SDS011;51514;52.206;5.114;2022-09-09T01:07:59;5.78;;;3.05;;
64885;SDS011;51514;52.206;5.114;2022-09-09T01:10:36;10.85;;;3.13;;
64885;SDS011;51514;52.206;5.114;2022-09-09T01:13:13;6.95;;;3.30;;
64885;SDS011;51514;52.206;5.114;2022-09-09T01:15:44;7.00;;;3.10;;
64885;SDS011;51514;52.206;5.114;2022-09-09T01:18:12;8.40;;;3.25;;
64885;SDS011;51514;52.206;5.114;2022-09-09T01:20:47;7.57;;;3.53;;
64885;SDS011;51514;52.206;5.114;2022-09-09T01:28:53;6.32;;;3.80;;
64885;SDS011;51514;52.206;5.114;2022-09-09T01:31:25;7.93;;;3.40;;
64885;SDS011;51514;52.206;5.114;2022-09-09T01:33:53;8.48;;;3.60;;
64885;SDS011;51514;52.206;5.114;2022-09-09T01:36:21;6.15;;;3.45;;
64885;SDS011;51514;52.206;5.114;2022-09-09T01:38:55;6.50;;;4.03;;
64885;SDS011;51514;52.206;5.114;2022-09-09T01:41:20;8.25;;;4.00;;
64885;SDS011;51514;52.206;5.114;2022-09-09T01:43:46;6.72;;;3.90;;
64885;SDS011;51514;52.206;5.114;2022-09-09T01:46:12;6.03;;;4.05;;
64885;SDS011;51514;52.206;5.114;2022-09-09T01:48:38;7.68;;;4.20;;
64885;SDS011;51514;52.206;5.114;2022-09-09T01:51:08;6.57;;;3.92;;
64885;SDS011;51514;52.206;5.114;2022-09-09T01:53:35;6.78;;;4.03;;
64885;SDS011;51514;52.206;5.114;2022-09-09T01:56:26;7.05;;;4.18;;
64885;SDS011;51514;52.206;5.114;2022-09-09T02:07:40;8.77;;;4.78;;
64885;SDS011;51514;52.206;5.114;2022-09-09T02:12:44;6.32;;;4.22;;
64885;SDS011;51514;52.206;5.114;2022-09-09T02:15:18;7.70;;;5.05;;
64885;SDS011;51514;52.206;5.114;2022-09-09T02:17:51;12.48;;;5.20;;
64885;SDS011;51514;52.206;5.114;2022-09-09T02:20:18;6.88;;;4.75;;
64885;SDS011;51514;52.206;5.114;2022-09-09T02:22:45;10.85;;;5.95;;
64885;SDS011;51514;52.206;5.114;2022-09-09T02:27:42;9.55;;;5.30;;
64885;SDS011;51514;52.206;5.114;2022-09-09T02:30:10;8.35;;;5.70;;
64885;SDS011;51514;52.206;5.114;2022-09-09T02:32:37;8.30;;;5.72;;
64885;SDS011;51514;52.206;5.114;2022-09-09T02:35:13;8.63;;;5.85;;
64885;SDS011;51514;52.206;5.114;2022-09-09T02:37:46;9.50;;;5.90;;
64885;SDS011;51514;52.206;5.114;2022-09-09T02:40:12;7.85;;;6.03;;
64885;SDS011;51514;52.206;5.114;2022-09-09T02:42:41;11.10;;;6.03;;
64885;SDS011;51514;52.206;5.114;2022-09-09T02:45:08;9.05;;;6.10;;
64885;SDS011;51514;52.206;5.114;2022-09-09T02:47:37;8.90;;;6.15;;
64885;SDS011;51514;52.206;5.114;2022-09-09T02:50:13;8.68;;;5.63;;
64885;SDS011;51514;52.206;5.114;2022-09-09T02:52:58;8.85;;;6.00;;
64885;SDS011;51514;52.206;5.114;2022-09-09T02:58:27;10.43;;;6.15;;
64885;SDS011;51514;52.206;5.114;2022-09-09T03:00:52;8.88;;;6.05;;
64885;SDS011;51514;52.206;5.114;2022-09-09T03:03:18;10.38;;;6.20;;
64885;SDS011;51514;52.206;5.114;2022-09-09T03:05:45;9.77;;;6.40;;
64885;SDS011;51514;52.206;5.114;2022-09-09T03:08:11;8.73;;;6.03;;
64885;SDS011;51514;52.206;5.114;2022-09-09T03:10:38;9.65;;;6.05;;
64885;SDS011;51514;52.206;5.114;2022-09-09T03:13:04;12.75;;;5.82;;
64885;SDS011;51514;52.206;5.114;2022-09-09T03:15:30;9.68;;;6.25;;
64885;SDS011;51514;52.206;5.114;2022-09-09T03:17:59;8.30;;;6.03;;
64885;SDS011;51514;52.206;5.114;2022-09-09T03:20:25;9.77;;;6.65;;
64885;SDS011;51514;52.206;5.114;2022-09-09T03:22:52;8.10;;;6.45;;
64885;SDS011;51514;52.206;5.114;2022-09-09T03:25:19;9.00;;;5.97;;
64885;SDS011;51514;52.206;5.114;2022-09-09T03:27:45;11.57;;;6.13;;
64885;SDS011;51514;52.206;5.114;2022-09-09T03:30:10;11.07;;;6.80;;
64885;SDS011;51514;52.206;5.114;2022-09-09T03:32:36;13.10;;;5.95;;
64885;SDS011;51514;52.206;5.114;2022-09-09T03:35:02;10.48;;;6.63;;
64885;SDS011;51514;52.206;5.114;2022-09-09T03:37:28;9.43;;;6.88;;
64885;SDS011;51514;52.206;5.114;2022-09-09T03:39:53;8.73;;;6.68;;
64885;SDS011;51514;52.206;5.114;2022-09-09T03:42:21;10.13;;;6.22;;
64885;SDS011;51514;52.206;5.114;2022-09-09T03:44:47;10.40;;;5.90;;
64885;SDS011;51514;52.206;5.114;2022-09-09T03:47:19;7.72;;;6.28;;
64885;SDS011;51514;52.206;5.114;2022-09-09T03:49:47;11.30;;;6.07;;
64885;SDS011;51514;52.206;5.114;2022-09-09T03:52:13;10.48;;;6.35;;
64885;SDS011;51514;52.206;5.114;2022-09-09T03:54:39;8.50;;;5.60;;
64885;SDS011;51514;52.206;5.114;2022-09-09T03:57:04;9.95;;;6.43;;
64885;SDS011;51514;52.206;5.114;2022-09-09T03:59:30;9.18;;;6.78;;
64885;SDS011;51514;52.206;5.114;2022-09-09T04:01:55;7.85;;;5.90;;
64885;SDS011;51514;52.206;5.114;2022-09-09T04:04:22;9.63;;;6.72;;
64885;SDS011;51514;52.206;5.114;2022-09-09T04:06:47;11.35;;;6.97;;
64885;SDS011;51514;52.206;5.114;2022-09-09T04:09:15;9.23;;;5.40;;
64885;SDS011;51514;52.206;5.114;2022-09-09T04:11:41;8.88;;;6.43;;
64885;SDS011;51514;52.206;5.114;2022-09-09T04:14:06;9.35;;;5.75;;
64885;SDS011;51514;52.206;5.114;2022-09-09T04:16:32;9.43;;;6.18;;
64885;SDS011;51514;52.206;5.114;2022-09-09T04:18:58;7.95;;;6.10;;
64885;SDS011;51514;52.206;5.114;2022-09-09T04:21:29;9.05;;;5.97;;
64885;SDS011;51514;52.206;5.114;2022-09-09T04:23:55;10.73;;;5.90;;
64885;SDS011;51514;52.206;5.114;2022-09-09T04:26:20;7.50;;;5.65;;
64885;SDS011;51514;52.206;5.114;2022-09-09T04:28:45;9.23;;;6.22;;
64885;SDS011;51514;52.206;5.114;2022-09-09T04:31:15;8.52;;;6.00;;
64885;SDS011;51514;52.206;5.114;2022-09-09T04:33:46;8.05;;;6.00;;
64885;SDS011;51514;52.206;5.114;2022-09-09T04:36:13;7.97;;;5.30;;
64885;SDS011;51514;52.206;5.114;2022-09-09T04:38:38;9.35;;;6.05;;
64885;SDS011;51514;52.206;5.114;2022-09-09T04:41:04;8.38;;;6.03;;
64885;SDS011;51514;52.206;5.114;2022-09-09T04:43:30;12.20;;;6.25;;
64885;SDS011;51514;52.206;5.114;2022-09-09T04:45:56;12.95;;;6.18;;
64885;SDS011;51514;52.206;5.114;2022-09-09T04:48:21;9.73;;;5.78;;
64885;SDS011;51514;52.206;5.114;2022-09-09T04:53:41;10.07;;;5.72;;
64885;SDS011;51514;52.206;5.114;2022-09-09T04:56:11;10.27;;;5.40;;
64885;SDS011;51514;52.206;5.114;2022-09-09T04:58:39;9.63;;;5.57;;
64885;SDS011;51514;52.206;5.114;2022-09-09T05:01:13;8.68;;;5.30;;
64885;SDS011;51514;52.206;5.114;2022-09-09T05:03:42;10.18;;;5.60;;
64885;SDS011;51514;52.206;5.114;2022-09-09T05:06:10;7.82;;;5.55;;
64885;SDS011;51514;52.206;5.114;2022-09-09T05:08:37;8.20;;;5.30;;
64885;SDS011;51514;52.206;5.114;2022-09-09T05:11:12;9.50;;;5.65;;
64885;SDS011;51514;52.206;5.114;2022-09-09T05:13:41;13.18;;;6.22;;
64885;SDS011;51514;52.206;5.114;2022-09-09T05:16:07;9.38;;;5.68;;
64885;SDS011;51514;52.206;5.114;2022-09-09T05:18:35;14.80;;;6.10;;
64885;SDS011;51514;52.206;5.114;2022-09-09T05:21:01;8.75;;;5.43;;
64885;SDS011;51514;52.206;5.114;2022-09-09T05:23:27;9.07;;;5.13;;
64885;SDS011;51514;52.206;5.114;2022-09-09T05:25:56;9.45;;;5.07;;
64885;SDS011;51514;52.206;5.114;2022-09-09T05:28:22;9.05;;;5.18;;
64885;SDS011;51514;52.206;5.114;2022-09-09T05:30:55;13.75;;;6.45;;
64885;SDS011;51514;52.206;5.114;2022-09-09T05:33:24;11.20;;;5.57;;
64885;SDS011;51514;52.206;5.114;2022-09-09T05:38:49;8.60;;;5.40;;
64885;SDS011;51514;52.206;5.114;2022-09-09T05:41:15;11.82;;;5.05;;
64885;SDS011;51514;52.206;5.114;2022-09-09T05:43:42;7.57;;;4.95;;
64885;SDS011;51514;52.206;5.114;2022-09-09T05:46:13;10.35;;;5.40;;
64885;SDS011;51514;52.206;5.114;2022-09-09T05:48:42;8.52;;;5.43;;
64885;SDS011;51514;52.206;5.114;2022-09-09T05:51:09;9.88;;;5.40;;
64885;SDS011;51514;52.206;5.114;2022-09-09T05:53:37;9.75;;;6.00;;
64885;SDS011;51514;52.206;5.114;2022-09-09T05:56:10;10.60;;;5.50;;
64885;SDS011;51514;52.206;5.114;2022-09-09T05:58:39;10.52;;;5.15;;
64885;SDS011;51514;52.206;5.114;2022-09-09T06:01:09;11.25;;;5.57;;
64885;SDS011;51514;52.206;5.114;2022-09-09T06:03:40;11.65;;;5.72;;
64885;SDS011;51514;52.206;5.114;2022-09-09T06:06:07;9.30;;;4.78;;
64885;SDS011;51514;52.206;5.114;2022-09-09T06:08:35;7.80;;;5.43;;
64885;SDS011;51514;52.206;5.114;2022-09-09T06:11:05;14.10;;;5.57;;
64885;SDS011;51514;52.206;5.114;2022-09-09T06:13:33;10.77;;;5.67;;
64885;SDS011;51514;52.206;5.114;2022-09-09T06:16:00;9.80;;;5.93;;
64885;SDS011;51514;52.206;5.114;2022-09-09T06:18:25;11.18;;;5.50;;
64885;SDS011;51514;52.206;5.114;2022-09-09T06:20:58;9.20;;;4.70;;
64885;SDS011;51514;52.206;5.114;2022-09-09T06:23:31;12.40;;;4.80;;
64885;SDS011;51514;52.206;5.114;2022-09-09T06:26:04;9.57;;;5.45;;
64885;SDS011;51514;52.206;5.114;2022-09-09T06:28:32;11.98;;;4.80;;
64885;SDS011;51514;52.206;5.114;2022-09-09T06:31:01;11.07;;;5.13;;
64885;SDS011;51514;52.206;5.114;2022-09-09T06:35:56;10.63;;;4.60;;
64885;SDS011;51514;52.206;5.114;2022-09-09T06:38:22;11.75;;;5.10;;
64885;SDS011;51514;52.206;5.114;2022-09-09T06:40:53;9.00;;;4.70;;
64885;SDS011;51514;52.206;5.114;2022-09-09T06:43:20;13.32;;;4.38;;
64885;SDS011;51514;52.206;5.114;2022-09-09T06:45:56;8.93;;;4.72;;
64885;SDS011;51514;52.206;5.114;2022-09-09T06:48:23;12.93;;;4.47;;
64885;SDS011;51514;52.206;5.114;2022-09-09T06:50:50;12.35;;;4.53;;
64885;SDS011;51514;52.206;5.114;2022-09-09T06:53:16;10.95;;;5.15;;
64885;SDS011;51514;52.206;5.114;2022-09-09T06:55:45;13.23;;;4.88;;
64885;SDS011;51514;52.206;5.114;2022-09-09T06:58:10;10.43;;;4.00;;
64885;SDS011;51514;52.206;5.114;2022-09-09T07:00:35;11.98;;;5.05;;
64885;SDS011;51514;52.206;5.114;2022-09-09T07:03:03;13.20;;;4.32;;
64885;SDS011;51514;52.206;5.114;2022-09-09T07:05:29;13.40;;;4.50;;
64885;SDS011;51514;52.206;5.114;2022-09-09T07:07:54;9.45;;;4.20;;
64885;SDS011;51514;52.206;5.114;2022-09-09T07:10:20;9.82;;;4.60;;
64885;SDS011;51514;52.206;5.114;2022-09-09T07:12:49;17.48;;;4.50;;
64885;SDS011;51514;52.206;5.114;2022-09-09T07:15:16;15.18;;;4.35;;
64885;SDS011;51514;52.206;5.114;2022-09-09T07:17:43;10.73;;;4.40;;
64885;SDS011;51514;52.206;5.114;2022-09-09T07:20:09;11.55;;;4.50;;
64885;SDS011;51514;52.206;5.114;2022-09-09T07:22:34;9.77;;;4.03;;
64885;SDS011;51514;52.206;5.114;2022-09-09T07:25:00;14.77;;;4.78;;
64885;SDS011;51514;52.206;5.114;2022-09-09T07:27:26;9.18;;;4.68;;
64885;SDS011;51514;52.206;5.114;2022-09-09T07:29:51;12.30;;;5.00;;
64885;SDS011;51514;52.206;5.114;2022-09-09T07:32:19;11.75;;;4.93;;
64885;SDS011;51514;52.206;5.114;2022-09-09T07:34:45;10.13;;;4.25;;
64885;SDS011;51514;52.206;5.114;2022-09-09T07:37:12;10.70;;;4.28;;
64885;SDS011;51514;52.206;5.114;2022-09-09T07:39:38;14.88;;;4.75;;
64885;SDS011;51514;52.206;5.114;2022-09-09T07:42:04;15.90;;;4.60;;
64885;SDS011;51514;52.206;5.114;2022-09-09T07:44:30;17.42;;;4.90;;
64885;SDS011;51514;52.206;5.114;2022-09-09T07:46:57;12.70;;;5.25;;
64885;SDS011;51514;52.206;5.114;2022-09-09T07:49:22;11.43;;;5.13;;
64885;SDS011;51514;52.206;5.114;2022-09-09T07:51:49;13.02;;;5.43;;
64885;SDS011;51514;52.206;5.114;2022-09-09T07:54:16;9.95;;;4.28;;
64885;SDS011;51514;52.206;5.114;2022-09-09T07:56:45;10.02;;;4.72;;
64885;SDS011;51514;52.206;5.114;2022-09-09T07:59:11;11.45;;;4.90;;
64885;SDS011;51514;52.206;5.114;2022-09-09T08:01:39;12.57;;;5.60;;
64885;SDS011;51514;52.206;5.114;2022-09-09T08:04:09;10.15;;;4.35;;
64885;SDS011;51514;52.206;5.114;2022-09-09T08:06:40;11.40;;;4.40;;
64885;SDS011;51514;52.206;5.114;2022-09-09T08:09:09;11.32;;;4.90;;
64885;SDS011;51514;52.206;5.114;2022-09-09T08:11:35;8.10;;;4.32;;
64885;SDS011;51514;52.206;5.114;2022-09-09T08:14:02;13.63;;;5.20;;
64885;SDS011;51514;52.206;5.114;2022-09-09T08:16:29;10.40;;;5.25;;
64885;SDS011;51514;52.206;5.114;2022-09-09T08:18:57;12.25;;;4.88;;
64885;SDS011;51514;52.206;5.114;2022-09-09T08:21:23;12.82;;;4.85;;
64885;SDS011;51514;52.206;5.114;2022-09-09T08:23:52;15.13;;;5.15;;
64885;SDS011;51514;52.206;5.114;2022-09-09T08:26:19;9.05;;;5.00;;
64885;SDS011;51514;52.206;5.114;2022-09-09T08:28:47;12.75;;;4.50;;
64885;SDS011;51514;52.206;5.114;2022-09-09T08:31:18;11.05;;;4.15;;
64885;SDS011;51514;52.206;5.114;2022-09-09T08:33:46;8.90;;;4.10;;
64885;SDS011;51514;52.206;5.114;2022-09-09T08:36:13;10.02;;;4.65;;
64885;SDS011;51514;52.206;5.114;2022-09-09T08:38:42;8.02;;;3.78;;
64885;SDS011;51514;52.206;5.114;2022-09-09T08:49:32;9.30;;;3.88;;
64885;SDS011;51514;52.206;5.114;2022-09-09T08:52:19;10.75;;;3.88;;
64885;SDS011;51514;52.206;5.114;2022-09-09T08:54:54;9.85;;;3.55;;
64885;SDS011;51514;52.206;5.114;2022-09-09T08:57:23;10.57;;;4.30;;
64885;SDS011;51514;52.206;5.114;2022-09-09T08:59:52;12.98;;;4.45;;
64885;SDS011;51514;52.206;5.114;2022-09-09T09:02:37;10.57;;;4.38;;
64885;SDS011;51514;52.206;5.114;2022-09-09T09:07:49;9.50;;;4.13;;
64885;SDS011;51514;52.206;5.114;2022-09-09T09:10:34;11.73;;;4.25;;
64885;SDS011;51514;52.206;5.114;2022-09-09T09:15:40;11.23;;;4.53;;
64885;SDS011;51514;52.206;5.114;2022-09-09T09:18:07;10.93;;;3.83;;
64885;SDS011;51514;52.206;5.114;2022-09-09T09:23:21;13.98;;;4.35;;
64885;SDS011;51514;52.206;5.114;2022-09-09T09:25:48;8.18;;;3.47;;
64885;SDS011;51514;52.206;5.114;2022-09-09T09:28:17;12.98;;;4.28;;
64885;SDS011;51514;52.206;5.114;2022-09-09T09:30:49;11.52;;;3.72;;
64885;SDS011;51514;52.206;5.114;2022-09-09T09:33:50;11.13;;;3.80;;
64885;SDS011;51514;52.206;5.114;2022-09-09T09:36:18;9.70;;;3.97;;
64885;SDS011;51514;52.206;5.114;2022-09-09T09:38:54;11.23;;;3.67;;
64885;SDS011;51514;52.206;5.114;2022-09-09T09:41:31;15.90;;;3.70;;
64885;SDS011;51514;52.206;5.114;2022-09-09T09:43:59;11.07;;;3.53;;
64885;SDS011;51514;52.206;5.114;2022-09-09T09:46:26;9.68;;;3.70;;
64885;SDS011;51514;52.206;5.114;2022-09-09T09:48:59;12.45;;;4.05;;
64885;SDS011;51514;52.206;5.114;2022-09-09T09:51:26;13.07;;;3.65;;
64885;SDS011;51514;52.206;5.114;2022-09-09T09:53:54;12.70;;;3.90;;
64885;SDS011;51514;52.206;5.114;2022-09-09T09:56:34;10.27;;;3.20;;
64885;SDS011;51514;52.206;5.114;2022-09-09T09:59:00;9.70;;;3.30;;
64885;SDS011;51514;52.206;5.114;2022-09-09T10:01:29;9.30;;;3.17;;
64885;SDS011;51514;52.206;5.114;2022-09-09T10:04:02;8.45;;;3.33;;
64885;SDS011;51514;52.206;5.114;2022-09-09T10:06:39;8.88;;;3.92;;
64885;SDS011;51514;52.206;5.114;2022-09-09T10:17:34;9.25;;;3.50;;
64885;SDS011;51514;52.206;5.114;2022-09-09T10:26:12;9.50;;;3.47;;
64885;SDS011;51514;52.206;5.114;2022-09-09T10:40:02;17.73;;;5.53;;
64885;SDS011;51514;52.206;5.114;2022-09-09T10:42:40;9.63;;;4.53;;
64885;SDS011;51514;52.206;5.114;2022-09-09T10:47:45;8.77;;;3.70;;
64885;SDS011;51514;52.206;5.114;2022-09-09T10:53:12;10.13;;;4.18;;
64885;SDS011;51514;52.206;5.114;2022-09-09T10:55:48;10.63;;;4.25;;
64885;SDS011;51514;52.206;5.114;2022-09-09T10:58:23;10.45;;;4.55;;
64885;SDS011;51514;52.206;5.114;2022-09-09T11:04:22;10.50;;;4.10;;
64885;SDS011;51514;52.206;5.114;2022-09-09T11:06:55;10.80;;;3.55;;
64885;SDS011;51514;52.206;5.114;2022-09-09T11:09:27;8.57;;;4.25;;
64885;SDS011;51514;52.206;5.114;2022-09-09T11:11:56;12.85;;;4.03;;
64885;SDS011;51514;52.206;5.114;2022-09-09T11:14:59;11.73;;;3.95;;
64885;SDS011;51514;52.206;5.114;2022-09-09T11:17:42;12.57;;;3.80;;
64885;SDS011;51514;52.206;5.114;2022-09-09T11:20:12;9.77;;;3.92;;
64885;SDS011;51514;52.206;5.114;2022-09-09T11:25:34;13.85;;;3.83;;
64885;SDS011;51514;52.206;5.114;2022-09-09T11:39:22;9.45;;;3.97;;
64885;SDS011;51514;52.206;5.114;2022-09-09T11:41:53;6.80;;;3.15;;
64885;SDS011;51514;52.206;5.114;2022-09-09T11:44:19;9.93;;;3.85;;
64885;SDS011;51514;52.206;5.114;2022-09-09T11:46:53;7.85;;;3.00;;
64885;SDS011;51514;52.206;5.114;2022-09-09T11:49:28;6.22;;;3.28;;
64885;SDS011;51514;52.206;5.114;2022-09-09T11:52:39;6.90;;;3.60;;
64885;SDS011;51514;52.206;5.114;2022-09-09T11:55:12;9.80;;;3.55;;
64885;SDS011;51514;52.206;5.114;2022-09-09T11:58:01;5.63;;;3.05;;
64885;SDS011;51514;52.206;5.114;2022-09-09T12:00:35;8.82;;;3.58;;
64885;SDS011;51514;52.206;5.114;2022-09-09T12:03:04;7.78;;;3.15;;
64885;SDS011;51514;52.206;5.114;2022-09-09T12:05:38;7.32;;;3.55;;
64885;SDS011;51514;52.206;5.114;2022-09-09T12:08:09;8.00;;;3.78;;
64885;SDS011;51514;52.206;5.114;2022-09-09T12:10:38;9.13;;;4.18;;
64885;SDS011;51514;52.206;5.114;2022-09-09T12:13:08;7.30;;;3.60;;
64885;SDS011;51514;52.206;5.114;2022-09-09T12:18:15;8.82;;;3.60;;
64885;SDS011;51514;52.206;5.114;2022-09-09T12:23:47;8.55;;;3.88;;
64885;SDS011;51514;52.206;5.114;2022-09-09T12:26:26;6.93;;;3.58;;
64885;SDS011;51514;52.206;5.114;2022-09-09T12:29:02;7.07;;;3.72;;
64885;SDS011;51514;52.206;5.114;2022-09-09T12:31:44;10.98;;;3.90;;
64885;SDS011;51514;52.206;5.114;2022-09-09T12:36:55;7.95;;;3.90;;
64885;SDS011;51514;52.206;5.114;2022-09-09T12:42:03;12.27;;;4.30;;
64885;SDS011;51514;52.206;5.114;2022-09-09T12:44:29;10.00;;;4.25;;
64885;SDS011;51514;52.206;5.114;2022-09-09T12:46:56;10.55;;;4.53;;
64885;SDS011;51514;52.206;5.114;2022-09-09T12:49:28;7.60;;;3.92;;
64885;SDS011;51514;52.206;5.114;2022-09-09T12:51:59;9.98;;;4.55;;
64885;SDS011;51514;52.206;5.114;2022-09-09T12:54:35;6.82;;;4.05;;
64885;SDS011;51514;52.206;5.114;2022-09-09T12:59:34;10.07;;;4.22;;
64885;SDS011;51514;52.206;5.114;2022-09-09T13:02:10;9.40;;;3.80;;
64885;SDS011;51514;52.206;5.114;2022-09-09T13:04:42;7.88;;;3.95;;
64885;SDS011;51514;52.206;5.114;2022-09-09T13:07:07;9.20;;;4.07;;
64885;SDS011;51514;52.206;5.114;2022-09-09T13:09:34;11.68;;;4.53;;
64885;SDS011;51514;52.206;5.114;2022-09-09T13:12:00;10.65;;;3.78;;
64885;SDS011;51514;52.206;5.114;2022-09-09T13:14:34;10.60;;;4.00;;
64885;SDS011;51514;52.206;5.114;2022-09-09T13:17:03;10.93;;;4.15;;
64885;SDS011;51514;52.206;5.114;2022-09-09T13:19:32;8.82;;;3.80;;
64885;SDS011;51514;52.206;5.114;2022-09-09T13:22:11;7.95;;;4.25;;
64885;SDS011;51514;52.206;5.114;2022-09-09T13:24:44;9.48;;;4.75;;
64885;SDS011;51514;52.206;5.114;2022-09-09T13:27:22;8.13;;;3.95;;
64885;SDS011;51514;52.206;5.114;2022-09-09T13:29:52;9.55;;;4.18;;
64885;SDS011;51514;52.206;5.114;2022-09-09T13:32:19;8.57;;;3.65;;
64885;SDS011;51514;52.206;5.114;2022-09-09T13:34:51;8.65;;;3.80;;
64885;SDS011;51514;52.206;5.114;2022-09-09T13:37:23;9.68;;;4.30;;
64885;SDS011;51514;52.206;5.114;2022-09-09T13:39:53;9.82;;;4.07;;
64885;SDS011;51514;52.206;5.114;2022-09-09T13:42:26;8.43;;;4.05;;
64885;SDS011;51514;52.206;5.114;2022-09-09T13:44:53;8.40;;;4.30;;
64885;SDS011;51514;52.206;5.114;2022-09-09T13:47:21;6.68;;;3.58;;
64885;SDS011;51514;52.206;5.114;2022-09-09T13:49:53;8.40;;;4.00;;
64885;SDS011;51514;52.206;5.114;2022-09-09T13:52:19;8.15;;;3.85;;
64885;SDS011;51514;52.206;5.114;2022-09-09T13:54:51;9.77;;;3.65;;
64885;SDS011;51514;52.206;5.114;2022-09-09T13:57:18;6.40;;;3.70;;
64885;SDS011;51514;52.206;5.114;2022-09-09T13:59:46;9.00;;;3.88;;
64885;SDS011;51514;52.206;5.114;2022-09-09T14:02:12;8.73;;;3.90;;
64885;SDS011;51514;52.206;5.114;2022-09-09T14:04:38;9.00;;;3.70;;
64885;SDS011;51514;52.206;5.114;2022-09-09T14:07:07;6.70;;;2.97;;
64885;SDS011;51514;52.206;5.114;2022-09-09T14:09:36;7.80;;;3.08;;
64885;SDS011;51514;52.206;5.114;2022-09-09T14:12:01;9.68;;;3.65;;
64885;SDS011;51514;52.206;5.114;2022-09-09T14:14:27;7.30;;;3.38;;
64885;SDS011;51514;52.206;5.114;2022-09-09T14:16:53;6.13;;;3.35;;
64885;SDS011;51514;52.206;5.114;2022-09-09T14:19:18;7.55;;;3.60;;
64885;SDS011;51514;52.206;5.114;2022-09-09T14:21:43;10.52;;;3.47;;
64885;SDS011;51514;52.206;5.114;2022-09-09T14:24:09;11.05;;;3.80;;
64885;SDS011;51514;52.206;5.114;2022-09-09T14:26:34;7.75;;;3.72;;
64885;SDS011;51514;52.206;5.114;2022-09-09T14:28:59;9.77;;;4.13;;
64885;SDS011;51514;52.206;5.114;2022-09-09T14:31:28;7.78;;;3.42;;
64885;SDS011;51514;52.206;5.114;2022-09-09T14:33:54;7.47;;;4.05;;
64885;SDS011;51514;52.206;5.114;2022-09-09T14:36:19;9.10;;;3.80;;
64885;SDS011;51514;52.206;5.114;2022-09-09T14:38:45;8.60;;;3.65;;
64885;SDS011;51514;52.206;5.114;2022-09-09T14:41:11;7.28;;;3.70;;
64885;SDS011;51514;52.206;5.114;2022-09-09T14:43:38;9.40;;;3.80;;
64885;SDS011;51514;52.206;5.114;2022-09-09T14:46:05;8.02;;;3.22;;
64885;SDS011;51514;52.206;5.114;2022-09-09T14:48:32;6.03;;;2.85;;
64885;SDS011;51514;52.206;5.114;2022-09-09T14:51:04;5.88;;;2.92;;
64885;SDS011;51514;52.206;5.114;2022-09-09T14:53:37;8.13;;;3.97;;
64885;SDS011;51514;52.206;5.114;2022-09-09T14:56:05;6.10;;;3.05;;
64885;SDS011;51514;52.206;5.114;2022-09-09T14:58:41;7.20;;;2.97;;
64885;SDS011;51514;52.206;5.114;2022-09-09T15:01:11;6.32;;;3.20;;
64885;SDS011;51514;52.206;5.114;2022-09-09T15:03:38;5.75;;;2.50;;
64885;SDS011;51514;52.206;5.114;2022-09-09T15:06:08;4.10;;;1.70;;
64885;SDS011;51514;52.206;5.114;2022-09-09T15:08:35;3.00;;;1.80;;
64885;SDS011;51514;52.206;5.114;2022-09-09T15:11:02;1.67;;;1.05;;
64885;SDS011;51514;52.206;5.114;2022-09-09T15:13:29;3.65;;;1.50;;
64885;SDS011;51514;52.206;5.114;2022-09-09T15:15:55;2.90;;;1.40;;
64885;SDS011;51514;52.206;5.114;2022-09-09T15:18:21;5.30;;;1.58;;
64885;SDS011;51514;52.206;5.114;2022-09-09T15:20:46;3.25;;;1.60;;
64885;SDS011;51514;52.206;5.114;2022-09-09T15:23:12;3.38;;;1.75;;
64885;SDS011;51514;52.206;5.114;2022-09-09T15:25:38;4.47;;;2.05;;
64885;SDS011;51514;52.206;5.114;2022-09-09T15:28:14;4.13;;;1.80;;
64885;SDS011;51514;52.206;5.114;2022-09-09T15:30:42;4.35;;;2.05;;
64885;SDS011;51514;52.206;5.114;2022-09-09T15:33:09;7.60;;;2.10;;
64885;SDS011;51514;52.206;5.114;2022-09-09T15:35:35;8.43;;;2.38;;
64885;SDS011;51514;52.206;5.114;2022-09-09T15:38:04;5.80;;;2.85;;
64885;SDS011;51514;52.206;5.114;2022-09-09T15:40:32;5.32;;;2.28;;
64885;SDS011;51514;52.206;5.114;2022-09-09T15:42:58;6.25;;;2.60;;
64885;SDS011;51514;52.206;5.114;2022-09-09T15:45:24;7.50;;;2.80;;
64885;SDS011;51514;52.206;5.114;2022-09-09T15:47:49;5.70;;;2.95;;
64885;SDS011;51514;52.206;5.114;2022-09-09T15:50:14;5.72;;;2.90;;
64885;SDS011;51514;52.206;5.114;2022-09-09T15:52:40;4.15;;;2.20;;
64885;SDS011;51514;52.206;5.114;2022-09-09T15:55:06;6.15;;;2.60;;
64885;SDS011;51514;52.206;5.114;2022-09-09T15:57:33;7.65;;;3.40;;
64885;SDS011;51514;52.206;5.114;2022-09-09T15:59:59;7.25;;;2.50;;
64885;SDS011;51514;52.206;5.114;2022-09-09T16:02:25;6.97;;;2.72;;
64885;SDS011;51514;52.206;5.114;2022-09-09T16:04:50;4.07;;;2.30;;
64885;SDS011;51514;52.206;5.114;2022-09-09T16:07:16;3.95;;;2.30;;
64885;SDS011;51514;52.206;5.114;2022-09-09T16:09:41;4.38;;;2.15;;
64885;SDS011;51514;52.206;5.114;2022-09-09T16:12:08;5.03;;;2.08;;
64885;SDS011;51514;52.206;5.114;2022-09-09T16:14:38;6.47;;;2.70;;
64885;SDS011;51514;52.206;5.114;2022-09-09T16:17:04;4.57;;;1.90;;
64885;SDS011;51514;52.206;5.114;2022-09-09T16:19:30;5.45;;;2.03;;
64885;SDS011;51514;52.206;5.114;2022-09-09T16:21:56;5.15;;;2.47;;
64885;SDS011;51514;52.206;5.114;2022-09-09T16:24:22;3.80;;;2.05;;
64885;SDS011;51514;52.206;5.114;2022-09-09T16:26:51;7.05;;;2.53;;
64885;SDS011;51514;52.206;5.114;2022-09-09T16:29:21;4.20;;;1.83;;
64885;SDS011;51514;52.206;5.114;2022-09-09T16:31:48;5.80;;;1.90;;
64885;SDS011;51514;52.206;5.114;2022-09-09T16:34:15;6.45;;;2.33;;
64885;SDS011;51514;52.206;5.114;2022-09-09T16:36:42;4.82;;;2.20;;
64885;SDS011;51514;52.206;5.114;2022-09-09T16:39:09;3.83;;;2.20;;
64885;SDS011;51514;52.206;5.114;2022-09-09T16:41:39;5.50;;;2.20;;
64885;SDS011;51514;52.206;5.114;2022-09-09T16:44:07;11.07;;;2.28;;
64885;SDS011;51514;52.206;5.114;2022-09-09T16:46:35;6.22;;;2.22;;
64885;SDS011;51514;52.206;5.114;2022-09-09T16:51:31;6.93;;;2.70;;
64885;SDS011;51514;52.206;5.114;2022-09-09T16:53:59;4.17;;;2.27;;
64885;SDS011;51514;52.206;5.114;2022-09-09T16:56:29;6.40;;;2.70;;
64885;SDS011;51514;52.206;5.114;2022-09-09T16:58:58;6.03;;;2.78;;
64885;SDS011;51514;52.206;5.114;2022-09-09T17:01:26;7.97;;;2.88;;
64885;SDS011;51514;52.206;5.114;2022-09-09T17:03:59;5.75;;;2.90;;
64885;SDS011;51514;52.206;5.114;2022-09-09T17:06:27;9.00;;;3.17;;
64885;SDS011;51514;52.206;5.114;2022-09-09T17:08:57;8.57;;;3.10;;
64885;SDS011;51514;52.206;5.114;2022-09-09T17:11:25;9.45;;;3.25;;
64885;SDS011;51514;52.206;5.114;2022-09-09T17:13:50;11.98;;;4.35;;